createdAt,value
2023-02-06T00:00:52.139Z,53.06
2023-02-06T00:03:20.114Z,53.03
2023-02-06T00:05:56.809Z,52.93
2023-02-06T00:08:23.462Z,53.17
2023-02-06T00:10:50.016Z,53.03
2023-02-06T00:13:17.185Z,53.24
2023-02-06T00:15:44.341Z,53.18
2023-02-06T00:18:11.452Z,52.97
2023-02-06T00:20:38.903Z,53.16
2023-02-06T00:23:05.481Z,53.04
2023-02-06T00:25:32.656Z,53.07
2023-02-06T00:27:59.257Z,52.99
2023-02-06T00:30:25.886Z,53.00
2023-02-06T00:32:52.955Z,53.02
2023-02-06T00:35:19.626Z,53.02
2023-02-06T00:37:46.693Z,53.12
2023-02-06T00:40:13.747Z,53.00
2023-02-06T00:42:40.392Z,52.85
2023-02-06T00:45:07.992Z,52.88
2023-02-06T00:47:35.530Z,53.10
2023-02-06T00:50:02.924Z,53.09
2023-02-06T00:52:30.008Z,53.07
2023-02-06T00:54:56.578Z,52.89
2023-02-06T00:57:23.802Z,52.95
2023-02-06T00:59:50.914Z,52.85
2023-02-06T01:02:17.505Z,52.90
2023-02-06T01:04:44.609Z,52.79
2023-02-06T01:07:11.147Z,52.86
2023-02-06T01:09:37.743Z,52.85
2023-02-06T01:12:04.621Z,52.90
2023-02-06T01:14:31.222Z,52.61
2023-02-06T01:16:57.787Z,52.69
2023-02-06T01:19:24.394Z,52.67
2023-02-06T01:21:51.401Z,52.81
2023-02-06T01:24:17.922Z,52.65
2023-02-06T01:26:44.444Z,52.73
2023-02-06T01:29:10.992Z,52.66
2023-02-06T01:31:38.062Z,52.66
2023-02-06T01:34:04.680Z,52.66
2023-02-06T01:36:31.289Z,52.56
2023-02-06T01:38:58.382Z,52.68
2023-02-06T01:41:25.155Z,52.57
2023-02-06T01:44:10.814Z,52.35
2023-02-06T01:46:39.908Z,52.56
2023-02-06T01:49:09.097Z,52.55
2023-02-06T01:51:36.156Z,52.59
2023-02-06T01:54:07.172Z,52.52
2023-02-06T01:56:40.203Z,52.53
2023-02-06T01:59:07.362Z,52.60
2023-02-06T02:01:34.250Z,52.63
2023-02-06T02:04:07.201Z,52.35
2023-02-06T02:06:34.815Z,52.47
2023-02-06T02:09:03.411Z,52.43
2023-02-06T02:11:37.027Z,52.31
2023-02-06T02:14:07.101Z,52.40
2023-02-06T02:16:53.901Z,52.22
2023-02-06T02:19:48.054Z,52.28
2023-02-06T02:22:50.586Z,52.28
2023-02-06T02:25:20.561Z,52.49
2023-02-06T02:28:15.533Z,52.43
2023-02-06T02:30:45.663Z,52.38
2023-02-06T02:38:02.442Z,52.32
2023-02-06T02:50:52.986Z,52.28
2023-02-06T03:04:08.272Z,52.27
2023-02-06T03:06:55.895Z,52.44
2023-02-06T03:09:46.255Z,52.26
2023-02-06T03:20:08.907Z,52.27
2023-02-06T03:26:50.069Z,52.33
2023-02-06T03:29:49.551Z,52.17
2023-02-06T03:33:39.874Z,52.10
2023-02-06T03:48:46.786Z,52.24
2023-02-06T03:55:27.553Z,52.12
2023-02-06T03:58:51.026Z,52.21
2023-02-06T04:01:49.691Z,52.29
2023-02-06T04:04:42.943Z,52.18
2023-02-06T04:07:44.943Z,52.26
2023-02-06T04:11:00.412Z,52.12
2023-02-06T04:13:45.268Z,52.11
2023-02-06T04:16:27.811Z,52.18
2023-02-06T04:19:23.176Z,52.35
2023-02-06T04:21:57.631Z,52.29
2023-02-06T04:24:34.429Z,52.46
2023-02-06T04:27:12.835Z,52.19
2023-02-06T04:30:10.606Z,51.94
2023-02-06T04:32:54.731Z,52.33
2023-02-06T04:35:32.057Z,52.07
2023-02-06T04:38:11.951Z,52.05
2023-02-06T04:40:49.825Z,52.27
2023-02-06T04:44:22.228Z,52.17
2023-02-06T04:47:16.777Z,52.21
2023-02-06T04:53:01.374Z,52.08
2023-02-06T04:56:06.394Z,52.04
2023-02-06T04:58:46.388Z,52.38
2023-02-06T05:01:49.272Z,52.07
2023-02-06T05:07:21.499Z,52.13
2023-02-06T05:10:02.812Z,52.00
2023-02-06T05:12:48.583Z,52.05
2023-02-06T05:15:55.009Z,52.06
2023-02-06T05:18:31.209Z,52.24
2023-02-06T05:21:28.511Z,51.98
2023-02-06T05:24:03.991Z,52.18
2023-02-06T05:27:07.348Z,52.09
2023-02-06T05:30:04.448Z,52.02
2023-02-06T05:38:28.032Z,52.02
2023-02-06T05:41:09.534Z,52.10
2023-02-06T05:47:03.418Z,51.87
2023-02-06T05:50:03.707Z,52.07
2023-02-06T05:52:41.245Z,52.23
2023-02-06T05:55:34.535Z,52.25
2023-02-06T05:58:18.196Z,52.03
2023-02-06T06:01:12.727Z,52.31
2023-02-06T06:03:51.818Z,52.06
2023-02-06T06:06:35.343Z,52.09
2023-02-06T06:09:24.226Z,52.04
2023-02-06T06:12:06.991Z,51.93
2023-02-06T06:15:02.916Z,52.06
2023-02-06T06:17:57.104Z,52.02
2023-02-06T06:23:47.435Z,52.54
2023-02-06T06:26:14.061Z,52.48
2023-02-06T06:28:41.295Z,52.38
2023-02-06T06:31:12.163Z,52.34
2023-02-06T06:33:39.742Z,52.11
2023-02-06T06:36:08.026Z,52.28
2023-02-06T06:38:34.969Z,52.34
2023-02-06T06:41:02.015Z,52.40
2023-02-06T06:43:29.608Z,52.61
2023-02-06T06:45:56.342Z,52.41
2023-02-06T06:48:22.986Z,52.35
2023-02-06T06:50:50.382Z,52.37
2023-02-06T06:53:17.481Z,52.48
2023-02-06T06:55:44.537Z,52.31
2023-02-06T06:58:11.834Z,52.34
2023-02-06T07:00:39.930Z,52.24
2023-02-06T07:03:07.848Z,52.43
2023-02-06T07:05:35.408Z,52.44
2023-02-06T07:08:03.268Z,52.45
2023-02-06T07:10:30.300Z,52.45
2023-02-06T07:12:57.473Z,52.81
2023-02-06T07:15:24.183Z,52.84
2023-02-06T07:17:51.229Z,52.97
2023-02-06T07:20:17.843Z,52.79
2023-02-06T07:22:44.386Z,52.72
2023-02-06T07:25:11.613Z,52.81
2023-02-06T07:27:38.621Z,52.90
2023-02-06T07:30:06.657Z,52.86
2023-02-06T07:32:36.571Z,52.73
2023-02-06T07:35:04.207Z,52.77
2023-02-06T07:37:30.776Z,52.58
2023-02-06T07:39:57.759Z,52.68
2023-02-06T07:42:24.492Z,52.69
2023-02-06T07:44:51.321Z,52.54
2023-02-06T07:47:18.841Z,52.56
2023-02-06T07:49:45.402Z,52.52
2023-02-06T07:52:12.551Z,52.56
2023-02-06T07:54:39.110Z,52.69
2023-02-06T07:57:06.181Z,52.74
2023-02-06T07:59:33.208Z,52.66
2023-02-06T08:02:01.102Z,52.65
2023-02-06T08:04:29.488Z,52.60
2023-02-06T08:06:56.577Z,52.44
2023-02-06T08:09:23.603Z,52.55
2023-02-06T08:11:50.179Z,52.63
2023-02-06T08:14:17.736Z,52.51
2023-02-06T08:16:45.269Z,52.63
2023-02-06T08:19:12.382Z,52.56
2023-02-06T08:21:39.487Z,52.39
2023-02-06T08:24:06.437Z,52.40
2023-02-06T08:26:34.117Z,52.44
2023-02-06T08:29:04.274Z,52.53
2023-02-06T08:31:36.432Z,52.36
2023-02-06T08:34:03.992Z,52.39
2023-02-06T08:36:34.063Z,52.40
2023-02-06T08:39:02.047Z,52.14
2023-02-06T08:41:39.683Z,52.25
2023-02-06T08:44:11.858Z,52.29
2023-02-06T08:46:39.583Z,52.33
2023-02-06T08:49:11.199Z,52.29
2023-02-06T08:51:37.967Z,52.42
2023-02-06T08:54:06.985Z,52.20
2023-02-06T08:56:35.440Z,52.29
2023-02-06T08:59:02.567Z,52.27
2023-02-06T09:01:31.744Z,52.24
2023-02-06T09:04:00.851Z,52.21
2023-02-06T09:06:28.379Z,52.34
2023-02-06T09:08:57.089Z,52.29
2023-02-06T09:11:25.340Z,52.29
2023-02-06T09:13:55.107Z,52.36
2023-02-06T09:16:22.180Z,52.47
2023-02-06T09:18:50.651Z,52.45
2023-02-06T09:21:21.140Z,52.44
2023-02-06T09:23:59.092Z,52.37
2023-02-06T09:26:28.771Z,52.35
2023-02-06T09:29:00.264Z,52.26
2023-02-06T09:31:30.706Z,52.32
2023-02-06T09:33:58.400Z,52.47
2023-02-06T09:36:24.957Z,52.48
2023-02-06T09:38:59.425Z,52.21
2023-02-06T09:41:40.960Z,52.31
2023-02-06T09:44:10.259Z,52.40
2023-02-06T09:46:43.452Z,52.33
2023-02-06T09:49:28.035Z,52.02
2023-02-06T09:51:57.305Z,52.20
2023-02-06T09:54:26.866Z,52.14
2023-02-06T09:57:01.143Z,52.13
2023-02-06T09:59:51.482Z,52.12
2023-02-06T10:02:30.063Z,52.44
2023-02-06T10:05:07.863Z,52.06
2023-02-06T10:07:52.982Z,51.96
2023-02-06T10:10:38.925Z,52.16
2023-02-06T10:13:18.982Z,52.05
2023-02-06T10:15:48.622Z,52.12
2023-02-06T10:18:17.930Z,52.10
2023-02-06T10:20:56.884Z,52.16
2023-02-06T10:23:51.300Z,52.17
2023-02-06T10:26:19.338Z,52.38
2023-02-06T10:28:51.444Z,52.33
2023-02-06T10:31:23.999Z,52.36
2023-02-06T10:34:05.149Z,52.32
2023-02-06T10:36:46.023Z,52.52
2023-02-06T10:39:54.962Z,52.51
2023-02-06T10:42:40.486Z,52.71
2023-02-06T10:45:31.514Z,52.34
2023-02-06T10:48:28.717Z,52.82
2023-02-06T10:51:12.193Z,52.50
2023-02-06T10:53:48.633Z,52.78
2023-02-06T10:56:20.354Z,52.76
2023-02-06T10:58:56.068Z,53.07
2023-02-06T11:01:26.832Z,52.97
2023-02-06T11:03:56.584Z,52.64
2023-02-06T11:06:26.222Z,53.05
2023-02-06T11:08:52.911Z,52.88
2023-02-06T11:11:29.832Z,52.78
2023-02-06T11:14:25.069Z,52.96
2023-02-06T11:16:52.847Z,52.68
2023-02-06T11:19:36.630Z,52.44
2023-02-06T11:22:12.174Z,52.77
2023-02-06T11:24:46.264Z,52.77
2023-02-06T11:27:20.714Z,52.91
2023-02-06T11:29:51.940Z,52.91
2023-02-06T11:32:43.915Z,52.26
2023-02-06T11:35:53.963Z,52.52
2023-02-06T11:38:23.732Z,52.52
2023-02-06T11:41:17.716Z,52.61
2023-02-06T11:43:44.203Z,52.70
2023-02-06T11:46:14.542Z,52.73
2023-02-06T11:48:48.325Z,52.42
2023-02-06T11:51:16.846Z,52.61
2023-02-06T11:54:04.755Z,52.62
2023-02-06T11:56:32.082Z,52.58
2023-02-06T11:59:17.855Z,52.48
2023-02-06T12:01:46.801Z,52.50
2023-02-06T12:04:26.424Z,52.66
2023-02-06T12:06:58.951Z,52.51
2023-02-06T12:09:26.052Z,52.60
2023-02-06T12:11:52.552Z,52.65
2023-02-06T12:14:30.692Z,52.96
2023-02-06T12:16:58.812Z,52.90
2023-02-06T12:19:33.793Z,52.65
2023-02-06T12:22:07.649Z,52.83
2023-02-06T12:24:41.023Z,52.87
2023-02-06T12:27:27.862Z,53.05
2023-02-06T12:30:20.320Z,52.72
2023-02-06T12:32:51.283Z,53.01
2023-02-06T12:35:18.049Z,53.22
2023-02-06T12:37:52.233Z,53.13
2023-02-06T12:40:34.543Z,52.77
2023-02-06T12:43:07.061Z,52.76
2023-02-06T12:46:11.973Z,52.82
2023-02-06T12:48:52.310Z,53.00
2023-02-06T12:51:38.671Z,52.76
2023-02-06T12:54:11.744Z,52.79
2023-02-06T12:56:47.186Z,52.67
2023-02-06T12:59:59.659Z,52.66
2023-02-06T13:02:47.386Z,52.70
2023-02-06T13:05:54.750Z,52.64
2023-02-06T13:08:36.320Z,52.89
2023-02-06T13:11:40.682Z,53.06
2023-02-06T13:14:17.140Z,53.66
2023-02-06T13:16:52.471Z,53.41
2023-02-06T13:19:50.239Z,53.28
2023-02-06T13:22:17.398Z,53.30
2023-02-06T13:24:47.309Z,53.21
2023-02-06T13:27:34.112Z,53.44
2023-02-06T13:30:29.243Z,53.22
2023-02-06T13:33:16.666Z,53.08
2023-02-06T13:36:15.789Z,53.00
2023-02-06T13:38:43.583Z,53.11
2023-02-06T13:41:14.023Z,53.43
2023-02-06T13:43:56.540Z,53.12
2023-02-06T13:46:33.071Z,53.16
2023-02-06T13:49:20.980Z,53.16
2023-02-06T13:52:24.923Z,53.04
2023-02-06T13:55:20.753Z,53.04
2023-02-06T13:58:05.624Z,53.00
2023-02-06T14:00:38.358Z,53.16
2023-02-06T14:03:10.026Z,53.21
2023-02-06T14:06:02.529Z,52.91
2023-02-06T14:08:57.777Z,53.12
2023-02-06T14:12:07.664Z,52.89
2023-02-06T14:14:46.899Z,53.36
2023-02-06T14:17:28.536Z,53.04
2023-02-06T14:20:00.987Z,53.02
2023-02-06T14:22:53.765Z,53.31
2023-02-06T14:25:59.638Z,53.34
2023-02-06T14:28:35.652Z,53.07
2023-02-06T14:31:20.242Z,52.85
2023-02-06T14:34:24.029Z,52.96
2023-02-06T14:37:10.199Z,52.79
2023-02-06T14:39:49.946Z,52.93
2023-02-06T14:42:22.536Z,53.02
2023-02-06T14:44:57.225Z,52.83
2023-02-06T14:47:40.982Z,53.04
2023-02-06T14:50:26.759Z,52.90
2023-02-06T14:52:57.855Z,53.12
2023-02-06T14:55:38.994Z,52.88
2023-02-06T14:58:18.153Z,53.06
2023-02-06T15:00:44.861Z,53.02
2023-02-06T15:03:15.786Z,52.86
2023-02-06T15:05:43.566Z,52.93
2023-02-06T15:08:20.580Z,53.13
2023-02-06T15:10:47.479Z,52.94
2023-02-06T15:13:20.960Z,52.68
2023-02-06T15:15:56.517Z,52.71
2023-02-06T15:18:23.968Z,52.87
2023-02-06T15:21:01.476Z,52.75
2023-02-06T15:23:39.438Z,53.04
2023-02-06T15:26:29.084Z,52.87
2023-02-06T15:28:58.234Z,52.86
2023-02-06T15:31:25.656Z,52.79
2023-02-06T15:33:55.010Z,52.78
2023-02-06T15:36:36.776Z,52.81
2023-02-06T15:39:07.790Z,52.93
2023-02-06T15:41:35.426Z,53.06
2023-02-06T15:44:10.604Z,52.95
2023-02-06T15:46:38.466Z,52.84
2023-02-06T15:49:06.920Z,52.84
2023-02-06T15:51:50.220Z,52.60
2023-02-06T15:54:16.714Z,52.93
2023-02-06T15:56:47.926Z,52.98
2023-02-06T15:59:20.921Z,52.66
2023-02-06T16:01:48.823Z,52.86
2023-02-06T16:04:18.557Z,52.82
2023-02-06T16:06:47.011Z,52.74
2023-02-06T16:09:21.700Z,52.85
2023-02-06T16:11:52.665Z,52.88
2023-02-06T16:14:25.198Z,52.73
2023-02-06T16:17:05.699Z,52.89
2023-02-06T16:19:49.632Z,52.75
2023-02-06T16:22:33.455Z,52.67
2023-02-06T16:25:22.702Z,52.78
2023-02-06T16:27:51.286Z,53.36
2023-02-06T16:30:28.545Z,53.15
2023-02-06T16:32:57.026Z,53.00
2023-02-06T16:35:24.990Z,53.23
2023-02-06T16:37:53.502Z,52.89
2023-02-06T16:40:20.717Z,52.95
2023-02-06T16:42:47.791Z,52.97
2023-02-06T16:45:19.506Z,52.96
2023-02-06T16:47:46.540Z,53.12
2023-02-06T16:50:13.695Z,52.81
2023-02-06T16:52:46.305Z,52.97
2023-02-06T16:55:17.545Z,53.47
2023-02-06T16:57:45.475Z,53.53
2023-02-06T17:00:20.251Z,53.28
2023-02-06T17:02:48.746Z,53.61
2023-02-06T17:05:16.271Z,53.70
2023-02-06T17:07:43.362Z,53.54
2023-02-06T17:10:13.255Z,53.79
2023-02-06T17:12:39.905Z,53.75
2023-02-06T17:15:06.898Z,54.04
2023-02-06T17:17:34.246Z,53.49
2023-02-06T17:20:00.817Z,53.66
2023-02-06T17:22:27.955Z,53.59
2023-02-06T17:24:54.598Z,53.43
2023-02-06T17:27:22.947Z,53.54
2023-02-06T17:29:50.732Z,53.64
2023-02-06T17:32:22.142Z,53.58
2023-02-06T17:34:50.257Z,53.55
2023-02-06T17:37:29.949Z,53.61
2023-02-06T17:39:56.512Z,53.45
2023-02-06T17:42:24.248Z,53.55
2023-02-06T17:44:50.862Z,53.71
2023-02-06T17:47:18.080Z,53.99
2023-02-06T17:49:46.671Z,53.54
2023-02-06T17:52:13.346Z,53.64
2023-02-06T17:54:40.126Z,53.71
2023-02-06T17:57:06.735Z,53.84
2023-02-06T17:59:33.889Z,53.62
2023-02-06T18:02:01.332Z,53.65
2023-02-06T18:04:28.312Z,53.78
2023-02-06T18:06:54.884Z,53.62
2023-02-06T18:09:21.461Z,53.89
2023-02-06T18:11:48.519Z,53.99
2023-02-06T18:14:15.665Z,54.02
2023-02-06T18:16:42.921Z,53.81
2023-02-06T18:19:10.504Z,53.70
2023-02-06T18:21:37.096Z,53.93
2023-02-06T18:24:05.189Z,53.94
2023-02-06T18:26:31.808Z,53.96
2023-02-06T18:28:58.348Z,53.85
2023-02-06T18:31:31.071Z,54.12
2023-02-06T18:33:57.776Z,54.33
2023-02-06T18:36:24.559Z,54.18
2023-02-06T18:38:51.105Z,54.19
2023-02-06T18:41:37.650Z,54.20
2023-02-06T18:44:06.574Z,54.37
2023-02-06T18:46:34.021Z,54.07
2023-02-06T18:49:00.985Z,53.97
2023-02-06T18:51:29.466Z,53.95
2023-02-06T18:53:58.229Z,53.89
2023-02-06T18:56:24.967Z,54.29
2023-02-06T18:58:51.777Z,54.06
2023-02-06T19:01:21.976Z,54.17
2023-02-06T19:03:49.830Z,54.41
2023-02-06T19:06:32.154Z,54.21
2023-02-06T19:08:59.666Z,54.16
2023-02-06T19:11:27.632Z,53.87
2023-02-06T19:13:54.999Z,53.89
2023-02-06T19:16:21.792Z,54.28
2023-02-06T19:18:49.651Z,54.33
2023-02-06T19:21:19.737Z,54.15
2023-02-06T19:23:47.999Z,54.17
2023-02-06T19:26:17.076Z,54.01
2023-02-06T19:28:44.334Z,53.86
2023-02-06T19:31:12.501Z,54.06
2023-02-06T19:33:40.911Z,54.34
2023-02-06T19:36:09.905Z,53.92
2023-02-06T19:38:37.084Z,53.67
2023-02-06T19:41:16.347Z,53.77
2023-02-06T19:43:42.947Z,53.87
2023-02-06T19:46:13.376Z,53.96
2023-02-06T19:48:45.609Z,54.11
2023-02-06T19:51:17.453Z,54.21
2023-02-06T19:53:48.144Z,54.17
2023-02-06T19:56:19.086Z,53.73
2023-02-06T19:58:45.605Z,53.97
2023-02-06T20:01:16.320Z,53.93
2023-02-06T20:03:44.349Z,53.92
2023-02-06T20:06:25.133Z,53.82
2023-02-06T20:08:52.046Z,54.11
2023-02-06T20:11:21.735Z,53.94
2023-02-06T20:13:52.048Z,53.96
2023-02-06T20:16:24.121Z,53.14
2023-02-06T20:18:51.151Z,53.35
2023-02-06T20:21:29.354Z,53.08
2023-02-06T20:23:58.190Z,53.08
2023-02-06T20:26:27.648Z,53.19
2023-02-06T20:28:54.691Z,52.93
2023-02-06T20:31:22.696Z,52.69
2023-02-06T20:33:50.465Z,52.43
2023-02-06T20:36:22.817Z,52.81
2023-02-06T20:38:54.169Z,53.04
2023-02-06T20:41:23.172Z,52.60
2023-02-06T20:43:50.310Z,53.06
2023-02-06T20:46:17.501Z,53.23
2023-02-06T20:48:46.175Z,53.39
2023-02-06T20:51:14.772Z,53.44
2023-02-06T20:53:41.932Z,53.28
2023-02-06T20:56:11.299Z,53.24
2023-02-06T20:58:39.176Z,53.02
2023-02-06T21:01:14.293Z,52.95
2023-02-06T21:03:40.968Z,53.04
2023-02-06T21:06:07.785Z,53.24
2023-02-06T21:08:34.784Z,53.42
2023-02-06T21:11:01.757Z,52.85
2023-02-06T21:13:28.945Z,53.12
2023-02-06T21:15:57.702Z,53.19
2023-02-06T21:18:27.782Z,53.22
2023-02-06T21:20:55.711Z,52.75
2023-02-06T21:23:23.873Z,52.73
2023-02-06T21:25:55.735Z,52.80
2023-02-06T21:28:23.252Z,53.12
2023-02-06T21:30:50.770Z,53.08
2023-02-06T21:33:19.121Z,53.04
2023-02-06T21:35:50.864Z,53.18
2023-02-06T21:38:17.662Z,53.03
2023-02-06T21:40:44.785Z,53.30
2023-02-06T21:43:12.558Z,53.05
2023-02-06T21:45:39.787Z,53.24
2023-02-06T21:48:06.883Z,53.12
2023-02-06T21:50:34.111Z,53.31
2023-02-06T21:53:00.669Z,53.09
2023-02-06T21:55:31.925Z,53.18
2023-02-06T21:57:59.326Z,53.12
2023-02-06T22:00:26.382Z,52.88
2023-02-06T22:02:53.978Z,52.92
2023-02-06T22:05:20.644Z,52.52
2023-02-06T22:07:47.761Z,52.48
2023-02-06T22:10:14.336Z,52.39
2023-02-06T22:12:41.436Z,52.28
2023-02-06T22:15:08.611Z,52.24
2023-02-06T22:17:35.523Z,52.13
2023-02-06T22:20:22.119Z,52.19
2023-02-06T22:23:07.450Z,52.11
2023-02-06T22:25:34.537Z,51.93
2023-02-06T22:28:01.118Z,51.98
2023-02-06T22:30:28.223Z,51.95
2023-02-06T22:32:55.281Z,51.70
2023-02-06T22:35:22.421Z,51.83
2023-02-06T22:37:49.548Z,51.54
2023-02-06T22:40:16.432Z,51.71
2023-02-06T22:42:43.511Z,51.52
2023-02-06T22:45:10.275Z,51.31
2023-02-06T22:47:36.815Z,51.29
2023-02-06T22:50:03.481Z,51.30
2023-02-06T22:52:48.336Z,51.21
2023-02-06T22:55:15.466Z,51.19
2023-02-06T22:57:42.064Z,51.15
2023-02-06T23:00:11.625Z,51.17
2023-02-06T23:02:39.108Z,50.98
2023-02-06T23:05:06.726Z,51.03
2023-02-06T23:07:33.300Z,50.96
2023-02-06T23:10:00.339Z,51.05
2023-02-06T23:12:26.970Z,50.89
2023-02-06T23:14:53.649Z,50.69
2023-02-06T23:17:20.229Z,50.79
2023-02-06T23:19:48.169Z,50.87
2023-02-06T23:22:14.753Z,50.93
2023-02-06T23:24:41.611Z,50.86
2023-02-06T23:27:08.234Z,50.66
2023-02-06T23:29:35.465Z,50.55
2023-02-06T23:32:02.090Z,50.56
2023-02-06T23:34:29.213Z,50.39
2023-02-06T23:36:55.938Z,50.52
2023-02-06T23:39:22.588Z,50.35
2023-02-06T23:41:49.194Z,50.44
2023-02-06T23:44:15.926Z,50.32
2023-02-06T23:46:42.535Z,50.36
2023-02-06T23:49:10.221Z,50.38
2023-02-06T23:51:37.988Z,50.23
2023-02-06T23:54:06.890Z,50.32
2023-02-06T23:56:33.849Z,50.43
2023-02-06T23:59:02.220Z,50.18
